createdAt,value
2023-02-11T00:02:29.843Z,3.80
2023-02-11T00:04:59.622Z,3.80
2023-02-11T00:07:31.088Z,3.80
2023-02-11T00:10:03.058Z,3.80
2023-02-11T00:12:33.770Z,3.80
2023-02-11T00:15:03.355Z,3.80
2023-02-11T00:17:33.337Z,3.70
2023-02-11T00:20:03.233Z,3.80
2023-02-11T00:22:32.883Z,3.80
2023-02-11T00:25:02.745Z,3.80
2023-02-11T00:27:33.631Z,3.80
2023-02-11T00:30:05.577Z,3.80
2023-02-11T00:32:35.058Z,3.80
2023-02-11T00:35:04.759Z,3.90
2023-02-11T00:37:36.665Z,3.90
2023-02-11T00:40:07.011Z,3.90
2023-02-11T00:42:37.797Z,3.90
2023-02-11T00:45:08.180Z,3.90
2023-02-11T00:47:37.594Z,3.90
2023-02-11T00:50:08.623Z,3.90
2023-02-11T00:52:37.924Z,3.90
2023-02-11T00:55:08.861Z,3.90
2023-02-11T00:57:39.767Z,4.00
2023-02-11T01:00:11.315Z,4.00
2023-02-11T01:02:40.759Z,4.00
2023-02-11T01:05:10.961Z,4.00
2023-02-11T01:07:40.563Z,4.00
2023-02-11T01:10:10.863Z,4.00
2023-02-11T01:12:42.279Z,4.00
2023-02-11T01:15:15.303Z,4.00
2023-02-11T01:17:44.754Z,4.00
2023-02-11T01:20:18.260Z,4.00
2023-02-11T01:22:47.663Z,4.00
2023-02-11T01:25:17.434Z,4.00
2023-02-11T01:27:48.196Z,4.00
2023-02-11T01:30:18.340Z,4.00
2023-02-11T01:32:47.978Z,4.00
2023-02-11T01:35:18.395Z,4.00
2023-02-11T01:37:47.887Z,4.00
2023-02-11T01:40:19.302Z,4.00
2023-02-11T01:42:51.104Z,3.90
2023-02-11T01:45:54.178Z,3.90
2023-02-11T01:48:29.892Z,3.90
2023-02-11T01:51:04.843Z,3.80
2023-02-11T01:53:52.552Z,3.80
2023-02-11T01:56:40.023Z,3.80
2023-02-11T01:59:18.380Z,3.70
2023-02-11T02:01:53.655Z,3.60
2023-02-11T02:04:27.655Z,3.60
2023-02-11T02:07:05.227Z,3.60
2023-02-11T02:09:40.427Z,3.50
2023-02-11T02:12:10.880Z,3.50
2023-02-11T02:14:42.566Z,3.50
2023-02-11T02:17:21.429Z,3.40
2023-02-11T02:20:22.241Z,3.50
2023-02-11T02:23:09.908Z,3.40
2023-02-11T02:26:04.684Z,3.50
2023-02-11T02:29:01.713Z,3.50
2023-02-11T02:31:47.740Z,3.50
2023-02-11T02:34:25.393Z,3.60
2023-02-11T02:37:01.456Z,3.50
2023-02-11T02:39:36.052Z,3.60
2023-02-11T02:42:06.864Z,3.60
2023-02-11T02:44:36.954Z,3.60
2023-02-11T02:47:06.266Z,3.60
2023-02-11T02:49:37.363Z,3.60
2023-02-11T02:52:33.542Z,3.50
2023-02-11T02:55:28.383Z,3.60
2023-02-11T02:58:36.179Z,3.60
2023-02-11T03:01:14.878Z,3.60
2023-02-11T03:03:49.406Z,3.60
2023-02-11T03:06:32.571Z,3.60
2023-02-11T03:09:11.074Z,3.60
2023-02-11T03:11:42.389Z,3.60
2023-02-11T03:14:15.488Z,3.60
2023-02-11T03:16:46.869Z,3.60
2023-02-11T03:19:20.760Z,3.60
2023-02-11T03:21:55.053Z,3.70
2023-02-11T03:24:31.562Z,3.70
2023-02-11T03:27:07.885Z,3.70
2023-02-11T03:29:42.449Z,3.70
2023-02-11T03:32:18.987Z,3.70
2023-02-11T03:34:52.155Z,3.70
2023-02-11T03:37:29.012Z,3.70
2023-02-11T03:40:01.852Z,3.70
2023-02-11T03:42:36.562Z,3.70
2023-02-11T03:45:09.872Z,3.60
2023-02-11T03:47:42.823Z,3.50
2023-02-11T03:50:14.512Z,3.50
2023-02-11T03:52:46.822Z,3.50
2023-02-11T03:55:21.414Z,3.40
2023-02-11T03:57:51.228Z,3.40
2023-02-11T04:00:20.820Z,3.40
2023-02-11T04:02:50.614Z,3.40
2023-02-11T04:05:20.138Z,3.40
2023-02-11T04:07:51.380Z,3.40
2023-02-11T04:10:20.951Z,3.40
2023-02-11T04:12:51.338Z,3.30
2023-02-11T04:15:21.287Z,3.40
2023-02-11T04:17:51.386Z,3.40
2023-02-11T04:20:20.864Z,3.40
2023-02-11T04:22:52.499Z,3.30
2023-02-11T04:25:21.957Z,3.30
2023-02-11T04:27:51.844Z,3.30
2023-02-11T04:30:21.155Z,3.30
2023-02-11T04:32:50.852Z,3.30
2023-02-11T04:35:20.251Z,3.30
2023-02-11T04:37:51.844Z,3.30
2023-02-11T04:40:21.489Z,3.30
2023-02-11T04:42:51.111Z,3.30
2023-02-11T04:45:20.553Z,3.30
2023-02-11T04:47:50.504Z,3.30
2023-02-11T04:50:20.629Z,3.30
2023-02-11T04:52:51.938Z,3.40
2023-02-11T04:55:20.847Z,3.40
2023-02-11T04:57:50.786Z,3.40
2023-02-11T05:00:20.252Z,3.40
2023-02-11T05:02:50.087Z,3.40
2023-02-11T05:05:19.696Z,3.40
2023-02-11T05:07:50.792Z,3.40
2023-02-11T05:10:20.320Z,3.40
2023-02-11T05:12:53.495Z,3.40
2023-02-11T05:15:23.949Z,3.50
2023-02-11T05:17:53.880Z,3.50
2023-02-11T05:20:23.404Z,3.50
2023-02-11T05:22:54.623Z,3.50
2023-02-11T05:25:23.923Z,3.50
2023-02-11T05:27:53.826Z,3.50
2023-02-11T05:30:23.683Z,3.50
2023-02-11T05:32:54.018Z,3.50
2023-02-11T05:35:23.298Z,3.50
2023-02-11T05:37:54.379Z,3.50
2023-02-11T05:40:23.703Z,3.50
2023-02-11T05:42:53.594Z,3.50
2023-02-11T05:45:23.355Z,3.50
2023-02-11T05:47:53.049Z,3.50
2023-02-11T05:50:22.383Z,3.50
2023-02-11T05:52:53.617Z,3.50
2023-02-11T05:55:22.906Z,3.60
2023-02-11T05:57:52.573Z,3.60
2023-02-11T06:00:22.137Z,3.60
2023-02-11T06:02:52.409Z,3.60
2023-02-11T06:05:22.308Z,3.60
2023-02-11T06:07:52.483Z,3.60
2023-02-11T06:10:23.827Z,3.70
2023-02-11T06:12:54.014Z,3.70
2023-02-11T06:15:23.423Z,3.70
2023-02-11T06:17:53.115Z,3.70
2023-02-11T06:20:22.612Z,3.80
2023-02-11T06:22:52.760Z,3.80
2023-02-11T06:25:23.562Z,3.80
2023-02-11T06:27:53.220Z,3.90
2023-02-11T06:30:22.787Z,3.90
2023-02-11T06:32:52.879Z,3.90
2023-02-11T06:35:22.398Z,3.90
2023-02-11T06:37:54.126Z,4.00
2023-02-11T06:40:24.993Z,4.00
2023-02-11T06:42:54.816Z,4.00
2023-02-11T06:45:24.732Z,4.00
2023-02-11T06:47:54.467Z,4.00
2023-02-11T06:50:24.828Z,4.00
2023-02-11T06:52:54.470Z,4.00
2023-02-11T06:55:25.303Z,4.00
2023-02-11T06:57:54.655Z,4.00
2023-02-11T07:00:24.194Z,4.10
2023-02-11T07:02:54.012Z,4.10
2023-02-11T07:05:23.452Z,4.10
2023-02-11T07:07:53.101Z,4.20
2023-02-11T07:10:22.539Z,4.20
2023-02-11T07:12:53.613Z,4.20
2023-02-11T07:15:22.910Z,4.20
2023-02-11T07:17:52.728Z,4.20
2023-02-11T07:20:22.035Z,4.30
2023-02-11T07:22:51.731Z,4.30
2023-02-11T07:25:20.997Z,4.30
2023-02-11T07:27:51.283Z,4.40
2023-02-11T07:30:22.334Z,4.40
2023-02-11T07:32:52.139Z,4.40
2023-02-11T07:35:21.563Z,4.50
2023-02-11T07:37:51.318Z,4.40
2023-02-11T07:40:20.821Z,4.40
2023-02-11T07:42:50.534Z,4.50
2023-02-11T07:45:21.415Z,4.50
2023-02-11T07:47:51.174Z,4.50
2023-02-11T07:50:20.828Z,4.50
2023-02-11T07:52:50.756Z,4.50
2023-02-11T07:55:20.152Z,4.60
2023-02-11T07:57:51.061Z,4.60
2023-02-11T08:00:21.976Z,4.60
2023-02-11T08:02:51.999Z,4.60
2023-02-11T08:05:21.445Z,4.70
2023-02-11T08:07:54.165Z,4.80
2023-02-11T08:10:24.126Z,4.80
2023-02-11T08:12:54.343Z,4.80
2023-02-11T08:15:25.042Z,4.80
2023-02-11T08:17:54.847Z,4.90
2023-02-11T08:20:24.750Z,5.00
2023-02-11T08:22:54.510Z,5.00
2023-02-11T08:25:24.023Z,5.00
2023-02-11T08:27:53.682Z,5.10
2023-02-11T08:30:27.377Z,5.10
2023-02-11T08:32:57.548Z,5.20
2023-02-11T08:35:27.316Z,5.20
2023-02-11T08:37:56.975Z,5.20
2023-02-11T08:40:27.045Z,5.20
2023-02-11T08:42:57.188Z,3.90
2023-02-11T08:45:27.955Z,5.30
2023-02-11T08:47:57.568Z,5.30
2023-02-11T08:50:28.716Z,5.30
2023-02-11T08:52:58.339Z,5.40
2023-02-11T08:55:27.948Z,5.40
2023-02-11T08:57:57.966Z,5.50
2023-02-11T09:00:28.864Z,5.50
2023-02-11T09:02:58.760Z,5.60
2023-02-11T09:05:28.289Z,5.70
2023-02-11T09:07:58.360Z,5.70
2023-02-11T09:10:27.752Z,5.80
2023-02-11T09:12:57.502Z,5.80
2023-02-11T09:15:28.650Z,5.90
2023-02-11T09:17:58.607Z,6.00
2023-02-11T09:20:29.528Z,6.00
2023-02-11T09:23:00.900Z,6.00
2023-02-11T09:25:29.814Z,6.10
2023-02-11T09:27:59.521Z,6.10
2023-02-11T09:30:30.974Z,6.10
2023-02-11T09:33:00.703Z,6.10
2023-02-11T09:35:30.444Z,6.30
2023-02-11T09:38:00.587Z,6.30
2023-02-11T09:40:30.967Z,6.30
2023-02-11T09:43:05.806Z,6.30
2023-02-11T09:45:37.491Z,6.30
2023-02-11T09:48:15.026Z,6.30
2023-02-11T09:50:47.578Z,6.20
2023-02-11T09:53:21.878Z,6.20
2023-02-11T09:55:56.020Z,6.20
2023-02-11T09:58:29.386Z,6.20
2023-02-11T10:01:08.844Z,6.30
2023-02-11T10:04:06.515Z,6.20
2023-02-11T10:06:42.449Z,6.20
2023-02-11T10:09:35.777Z,6.30
2023-02-11T10:12:27.761Z,6.30
2023-02-11T10:15:23.373Z,6.40
2023-02-11T10:18:06.285Z,6.40
2023-02-11T10:20:39.551Z,6.50
2023-02-11T10:23:17.054Z,6.60
2023-02-11T10:25:48.779Z,6.50
2023-02-11T10:28:20.233Z,6.50
2023-02-11T10:30:59.135Z,6.50
2023-02-11T10:33:33.899Z,6.40
2023-02-11T10:36:03.984Z,6.50
2023-02-11T10:38:34.214Z,6.50
2023-02-11T10:41:03.896Z,6.50
2023-02-11T10:43:34.889Z,6.50
2023-02-11T10:46:07.580Z,6.50
2023-02-11T10:48:45.170Z,6.50
2023-02-11T10:51:21.370Z,6.40
2023-02-11T10:53:52.567Z,6.40
2023-02-11T10:56:27.414Z,6.40
2023-02-11T10:59:00.615Z,6.40
2023-02-11T11:01:45.659Z,6.30
2023-02-11T11:04:45.138Z,6.30
2023-02-11T11:07:19.562Z,6.30
2023-02-11T11:09:55.773Z,6.30
2023-02-11T11:12:40.998Z,6.30
2023-02-11T11:15:21.977Z,6.30
2023-02-11T11:17:52.424Z,6.30
2023-02-11T11:20:27.554Z,6.30
2023-02-11T11:23:17.681Z,6.30
2023-02-11T11:25:59.926Z,6.30
2023-02-11T11:28:31.669Z,6.30
2023-02-11T11:31:02.091Z,6.30
2023-02-11T11:33:35.985Z,6.30
2023-02-11T11:36:10.335Z,6.30
2023-02-11T11:38:45.760Z,6.30
2023-02-11T11:41:25.737Z,6.40
2023-02-11T11:43:58.293Z,6.40
2023-02-11T11:46:30.863Z,6.40
2023-02-11T11:49:22.624Z,6.40
2023-02-11T11:52:05.229Z,6.40
2023-02-11T11:54:36.490Z,6.40
2023-02-11T11:57:14.253Z,6.40
2023-02-11T11:59:44.045Z,6.40
2023-02-11T12:02:36.897Z,6.40
2023-02-11T12:05:13.403Z,6.40
2023-02-11T12:07:57.760Z,6.50
2023-02-11T12:10:40.576Z,6.50
2023-02-11T12:13:25.814Z,6.50
2023-02-11T12:16:05.675Z,6.60
2023-02-11T12:18:58.995Z,6.60
2023-02-11T12:21:38.747Z,6.60
2023-02-11T12:24:34.212Z,6.70
2023-02-11T12:27:10.899Z,6.80
2023-02-11T12:29:57.516Z,6.80
2023-02-11T12:32:36.784Z,6.90
2023-02-11T12:35:27.185Z,7.00
2023-02-11T12:38:20.393Z,7.00
2023-02-11T12:41:01.659Z,7.00
2023-02-11T12:43:36.658Z,7.00
2023-02-11T12:46:37.948Z,7.00
2023-02-11T12:49:33.967Z,7.00
2023-02-11T12:52:37.836Z,7.00
2023-02-11T12:55:24.889Z,7.10
2023-02-11T12:57:58.595Z,7.00
2023-02-11T13:00:40.363Z,7.10
2023-02-11T13:03:15.425Z,7.10
2023-02-11T13:05:51.495Z,7.20
2023-02-11T13:08:27.588Z,7.20
2023-02-11T13:11:00.494Z,7.20
2023-02-11T13:13:37.375Z,7.20
2023-02-11T13:16:09.804Z,7.30
2023-02-11T13:18:52.837Z,7.30
2023-02-11T13:21:40.674Z,7.30
2023-02-11T13:24:28.125Z,7.30
2023-02-11T13:27:09.722Z,7.30
2023-02-11T13:30:11.846Z,7.30
2023-02-11T13:33:19.425Z,7.30
2023-02-11T13:36:11.531Z,7.40
2023-02-11T13:38:41.569Z,7.30
2023-02-11T13:41:21.404Z,7.40
2023-02-11T13:44:19.531Z,7.40
2023-02-11T13:46:57.475Z,7.40
2023-02-11T13:49:33.197Z,7.40
2023-02-11T13:52:04.781Z,7.40
2023-02-11T13:54:38.922Z,7.30
2023-02-11T13:57:33.307Z,7.30
2023-02-11T14:00:09.878Z,7.30
2023-02-11T14:03:12.486Z,7.30
2023-02-11T14:06:30.191Z,7.30
2023-02-11T14:09:27.403Z,7.30
2023-02-11T14:12:32.144Z,7.30
2023-02-11T14:15:07.345Z,7.30
2023-02-11T14:17:37.520Z,7.30
2023-02-11T14:20:42.425Z,7.30
2023-02-11T14:23:27.418Z,7.40
2023-02-11T14:26:06.794Z,7.40
2023-02-11T14:28:37.784Z,7.40
2023-02-11T14:31:14.127Z,7.30
2023-02-11T14:34:05.704Z,7.30
2023-02-11T14:37:09.870Z,7.30
2023-02-11T14:40:00.042Z,7.30
2023-02-11T14:42:31.304Z,7.30
2023-02-11T14:45:06.711Z,7.30
2023-02-11T14:47:47.262Z,7.30
2023-02-11T14:50:21.450Z,7.40
2023-02-11T14:52:52.633Z,7.30
2023-02-11T14:55:31.516Z,7.30
2023-02-11T14:58:18.913Z,7.40
2023-02-11T15:00:56.392Z,7.30
2023-02-11T15:03:30.890Z,7.40
2023-02-11T15:06:03.540Z,7.30
2023-02-11T15:08:38.484Z,7.30
2023-02-11T15:11:15.024Z,7.30
2023-02-11T15:13:48.258Z,7.30
2023-02-11T15:16:22.115Z,7.30
2023-02-11T15:18:54.714Z,7.20
2023-02-11T15:21:27.511Z,7.10
2023-02-11T15:24:07.536Z,7.10
2023-02-11T15:26:37.321Z,7.00
2023-02-11T15:29:17.457Z,6.90
2023-02-11T15:31:47.484Z,6.90
2023-02-11T15:34:16.793Z,6.90
2023-02-11T15:36:46.601Z,6.80
2023-02-11T15:39:31.581Z,6.80
2023-02-11T15:42:19.591Z,6.80
2023-02-11T15:44:56.343Z,6.70
2023-02-11T15:47:26.755Z,6.70
2023-02-11T15:49:56.083Z,6.70
2023-02-11T15:52:27.773Z,6.70
2023-02-11T15:55:01.934Z,6.70
2023-02-11T15:57:31.949Z,6.70
2023-02-11T16:00:06.052Z,6.60
2023-02-11T16:02:45.144Z,6.50
2023-02-11T16:05:31.791Z,6.40
2023-02-11T16:08:03.563Z,6.30
2023-02-11T16:10:36.680Z,6.30
2023-02-11T16:13:20.068Z,6.20
2023-02-11T16:15:52.960Z,6.20
2023-02-11T16:18:38.171Z,6.20
2023-02-11T16:21:15.250Z,6.20
2023-02-11T16:23:51.387Z,6.10
2023-02-11T16:26:29.463Z,6.20
2023-02-11T16:29:08.307Z,6.10
2023-02-11T16:31:40.026Z,6.00
2023-02-11T16:34:18.420Z,6.00
2023-02-11T16:36:48.597Z,6.00
2023-02-11T16:39:21.860Z,6.00
2023-02-11T16:41:53.990Z,6.00
2023-02-11T16:44:24.521Z,5.90
2023-02-11T16:46:54.862Z,5.90
2023-02-11T16:49:28.540Z,5.90
2023-02-11T16:52:01.524Z,5.90
2023-02-11T16:54:31.880Z,5.70
2023-02-11T16:57:03.428Z,5.50
2023-02-11T16:59:33.048Z,5.40
2023-02-11T17:02:02.484Z,5.40
2023-02-11T17:04:34.669Z,5.30
2023-02-11T17:07:04.142Z,5.30
2023-02-11T17:09:33.836Z,5.30
2023-02-11T17:12:05.193Z,5.20
2023-02-11T17:14:35.478Z,5.10
2023-02-11T17:17:04.896Z,5.00
2023-02-11T17:19:34.708Z,4.90
2023-02-11T17:22:04.858Z,4.70
2023-02-11T17:24:34.537Z,4.50
2023-02-11T17:27:05.540Z,4.40
2023-02-11T17:29:35.183Z,4.40
2023-02-11T17:32:04.639Z,4.30
2023-02-11T17:34:35.583Z,4.30
2023-02-11T17:37:09.425Z,4.20
2023-02-11T17:39:40.765Z,4.10
2023-02-11T17:42:11.998Z,4.00
2023-02-11T17:44:42.198Z,4.00
2023-02-11T17:47:11.980Z,4.00
2023-02-11T17:49:41.920Z,3.90
2023-02-11T17:52:11.677Z,3.90
2023-02-11T17:54:41.916Z,3.90
2023-02-11T17:57:14.828Z,3.80
2023-02-11T17:59:46.956Z,3.80
2023-02-11T18:02:16.793Z,3.70
2023-02-11T18:04:46.966Z,3.70
2023-02-11T18:07:16.300Z,3.60
2023-02-11T18:09:46.516Z,3.70
2023-02-11T18:12:25.274Z,3.60
2023-02-11T18:14:57.853Z,3.60
2023-02-11T18:17:28.149Z,3.50
2023-02-11T18:19:59.124Z,3.50
2023-02-11T18:22:30.266Z,3.40
2023-02-11T18:25:00.723Z,3.40
2023-02-11T18:27:32.079Z,3.40
2023-02-11T18:30:01.769Z,3.40
2023-02-11T18:32:31.343Z,3.40
2023-02-11T18:35:01.288Z,3.50
2023-02-11T18:37:30.735Z,3.40
2023-02-11T18:40:00.393Z,3.40
2023-02-11T18:42:33.541Z,3.40
2023-02-11T18:45:03.524Z,3.30
2023-02-11T18:47:33.644Z,3.30
2023-02-11T18:50:03.625Z,3.30
2023-02-11T18:52:33.402Z,3.30
2023-02-11T18:55:03.837Z,3.30
2023-02-11T18:57:35.535Z,3.30
2023-02-11T19:00:07.915Z,3.30
2023-02-11T19:02:38.319Z,3.30
2023-02-11T19:05:08.909Z,3.30
2023-02-11T19:07:38.585Z,3.40
2023-02-11T19:10:10.829Z,3.40
2023-02-11T19:12:44.433Z,3.30
2023-02-11T19:15:14.541Z,3.20
2023-02-11T19:17:43.812Z,3.30
2023-02-11T19:20:14.628Z,3.30
2023-02-11T19:22:44.705Z,3.30
2023-02-11T19:25:17.868Z,3.30
2023-02-11T19:27:48.823Z,3.20
2023-02-11T19:30:18.639Z,3.20
2023-02-11T19:32:52.891Z,3.20
2023-02-11T19:35:22.774Z,3.20
2023-02-11T19:37:52.223Z,3.20
2023-02-11T19:40:22.691Z,3.20
2023-02-11T19:42:55.238Z,3.10
2023-02-11T19:45:25.110Z,3.10
2023-02-11T19:47:57.702Z,3.10
2023-02-11T19:50:27.664Z,3.10
2023-02-11T19:53:02.613Z,3.10
2023-02-11T19:55:32.622Z,3.00
2023-02-11T19:58:03.747Z,2.90
2023-02-11T20:00:33.705Z,2.90
2023-02-11T20:03:03.162Z,2.90
2023-02-11T20:05:33.275Z,2.80
2023-02-11T20:08:03.121Z,2.80
2023-02-11T20:10:32.815Z,2.80
2023-02-11T20:13:05.313Z,2.80
2023-02-11T20:15:34.961Z,2.80
2023-02-11T20:18:04.468Z,2.70
2023-02-11T20:20:34.205Z,2.70
2023-02-11T20:23:03.734Z,2.70
2023-02-11T20:25:33.387Z,2.80
2023-02-11T20:28:04.336Z,2.80
2023-02-11T20:30:34.132Z,2.80
2023-02-11T20:33:03.841Z,2.80
2023-02-11T20:35:33.674Z,2.70
2023-02-11T20:38:03.269Z,2.70
2023-02-11T20:40:32.960Z,2.80
2023-02-11T20:43:04.450Z,2.80
2023-02-11T20:45:37.311Z,2.80
2023-02-11T20:48:06.956Z,2.80
2023-02-11T20:50:37.064Z,2.80
2023-02-11T20:53:06.787Z,2.90
2023-02-11T20:55:39.509Z,2.90
2023-02-11T20:58:10.498Z,3.00
2023-02-11T21:00:40.288Z,2.90
2023-02-11T21:03:10.650Z,2.90
2023-02-11T21:05:41.383Z,2.90
2023-02-11T21:08:13.616Z,2.80
2023-02-11T21:10:44.183Z,2.80
2023-02-11T21:13:15.507Z,2.80
2023-02-11T21:15:45.600Z,2.90
2023-02-11T21:18:15.443Z,2.80
2023-02-11T21:20:46.360Z,2.80
2023-02-11T21:23:16.852Z,2.80
2023-02-11T21:25:46.742Z,2.70
2023-02-11T21:28:17.565Z,2.70
2023-02-11T21:30:47.688Z,2.70
2023-02-11T21:33:17.358Z,2.70
2023-02-11T21:35:47.448Z,2.70
2023-02-11T21:38:17.080Z,2.70
2023-02-11T21:40:46.811Z,2.70
2023-02-11T21:43:17.804Z,2.60
2023-02-11T21:45:50.060Z,2.70
2023-02-11T21:48:20.310Z,2.70
2023-02-11T21:50:50.187Z,2.70
2023-02-11T21:53:19.749Z,2.70
2023-02-11T21:55:51.509Z,2.70
2023-02-11T21:58:22.280Z,2.70
2023-02-11T22:00:52.126Z,2.70
2023-02-11T22:03:21.544Z,2.70
2023-02-11T22:05:51.359Z,2.70
2023-02-11T22:08:20.960Z,2.60
2023-02-11T22:10:50.725Z,2.60
2023-02-11T22:13:20.577Z,2.60
2023-02-11T22:16:01.128Z,2.60
2023-02-11T22:18:31.690Z,2.70
2023-02-11T22:21:03.028Z,2.60
2023-02-11T22:23:32.964Z,2.60
2023-02-11T22:26:06.878Z,2.60
2023-02-11T22:28:39.071Z,2.70
2023-02-11T22:31:14.374Z,2.70
2023-02-11T22:33:43.955Z,2.60
2023-02-11T22:36:18.543Z,2.60
2023-02-11T22:38:49.427Z,2.70
2023-02-11T22:41:19.868Z,2.70
2023-02-11T22:43:49.480Z,2.70
2023-02-11T22:46:21.449Z,2.70
2023-02-11T22:48:51.405Z,2.70
2023-02-11T22:51:23.211Z,2.80
2023-02-11T22:53:54.045Z,2.70
2023-02-11T22:56:24.443Z,2.70
2023-02-11T22:58:54.817Z,2.60
2023-02-11T23:01:26.917Z,2.60
2023-02-11T23:03:56.707Z,2.50
2023-02-11T23:06:27.061Z,2.50
2023-02-11T23:08:56.386Z,2.50
2023-02-11T23:11:29.062Z,2.50
2023-02-11T23:13:58.630Z,2.50
2023-02-11T23:16:32.175Z,2.50
2023-02-11T23:19:02.478Z,2.40
2023-02-11T23:21:34.417Z,2.40
2023-02-11T23:24:06.586Z,2.40
2023-02-11T23:26:37.936Z,2.50
2023-02-11T23:29:07.385Z,2.40
2023-02-11T23:31:40.634Z,2.40
2023-02-11T23:34:10.939Z,2.50
2023-02-11T23:36:40.647Z,2.50
2023-02-11T23:39:09.922Z,2.50
2023-02-11T23:41:39.907Z,2.60
2023-02-11T23:44:09.512Z,2.60
2023-02-11T23:46:41.096Z,2.60
2023-02-11T23:49:10.771Z,2.60
2023-02-11T23:51:40.907Z,2.60
2023-02-11T23:54:12.275Z,2.60
2023-02-11T23:56:42.886Z,2.60
2023-02-11T23:59:12.489Z,2.60
